Time;durP1;ratioP1;P1;durP2;ratioP2;P2;SDS_P1;SDS_P2;PMS_P1;PMS_P2;Temp;Humidity;BMP_temperature;BMP_pressure;BME280_temperature;BME280_humidity;BME280_pressure;Samples;Min_cycle;Max_cycle;Signal;HPM_P1;HPM_P2
2022/09/03 00:00:08;;;;;;;8.55;2.45;;;;;;;19.71;47.80;98688.25;4486311;31;20103;-78
2022/09/03 00:02:38;;;;;;;8.23;2.67;;;;;;;19.77;47.61;98690.34;4479779;32;20116;-79
2022/09/03 00:05:10;;;;;;;7.53;2.78;;;;;;;19.70;47.95;98691.91;4484069;31;20103;-80
2022/09/03 00:07:46;;;;;;;8.82;2.40;;;;;;;19.65;47.73;98689.66;4471469;31;20099;-79
2022/09/03 00:10:20;;;;;;;10.75;2.50;;;;;;;19.76;47.51;98686.00;4484888;31;20098;-80
2022/09/03 00:12:46;;;;;;;7.57;2.35;;;;;;;19.65;47.89;98696.84;4485218;31;20103;-80
2022/09/03 00:15:16;;;;;;;9.00;2.60;;;;;;;19.64;47.89;98692.47;4485999;31;20454;-80
2022/09/03 00:17:50;;;;;;;7.57;2.37;;;;;;;19.67;48.00;98691.34;4484499;31;20127;-80
2022/09/03 00:20:29;;;;;;;9.57;2.83;;;;;;;19.67;47.94;98694.88;4499279;31;20080;-81
2022/09/03 00:22:57;;;;;;;7.55;2.35;;;;;;;19.66;47.95;98695.84;4484761;31;20452;-81
2022/09/03 00:25:50;;;;;;;8.05;2.70;;;;;;;19.62;48.05;98695.31;4484553;31;20119;-80
2022/09/03 00:28:24;;;;;;;9.68;2.55;;;;;;;19.63;48.01;98696.97;4485324;31;20458;-80
2022/09/03 00:31:05;;;;;;;8.20;2.80;;;;;;;19.62;48.17;98687.28;4498840;31;20068;-80
2022/09/03 00:33:31;;;;;;;8.93;2.28;;;;;;;19.58;48.15;98695.72;4485113;31;20126;-80
2022/09/03 00:36:12;;;;;;;7.25;2.25;;;;;;;19.60;48.03;98688.41;4483827;31;20091;-80
2022/09/03 00:38:37;;;;;;;8.60;2.65;;;;;;;19.58;48.05;98693.88;4485039;31;20084;-80
2022/09/03 00:41:06;;;;;;;8.25;2.67;;;;;;;19.56;48.09;98692.34;4499581;31;20110;-80
2022/09/03 00:43:46;;;;;;;7.32;2.40;;;;;;;19.53;48.21;98687.28;4498491;31;20179;-80
2022/09/03 00:46:29;;;;;;;6.53;2.17;;;;;;;19.57;48.25;98697.56;4499617;31;20143;-80
2022/09/03 00:48:57;;;;;;;10.50;2.80;;;;;;;19.51;48.43;98690.13;4499579;31;20100;-80
2022/09/03 00:51:34;;;;;;;7.97;2.40;;;;;;;19.43;48.50;98689.97;4498746;31;20144;-80
2022/09/03 00:54:08;;;;;;;10.23;2.72;;;;;;;19.45;48.54;98694.19;4484359;31;20101;-79
2022/09/03 00:56:47;;;;;;;7.75;2.58;;;;;;;19.47;48.80;98696.72;4499282;31;20088;-79
2022/09/03 00:59:21;;;;;;;7.93;2.55;;;;;;;19.46;49.10;98689.69;4499197;31;20091;-79
2022/09/03 01:02:08;;;;;;;8.75;2.60;;;;;;;19.44;49.13;98692.50;4498805;31;20375;-79
2022/09/03 01:04:45;;;;;;;8.93;2.58;;;;;;;19.42;49.11;98688.28;4498774;31;20093;-79
2022/09/03 01:07:28;;;;;;;7.82;2.62;;;;;;;19.39;49.41;98696.56;4498599;31;20083;-79
2022/09/03 01:10:00;;;;;;;8.15;2.35;;;;;;;19.28;49.59;98702.06;4500825;31;20162;-79
2022/09/03 01:12:26;;;;;;;7.45;2.50;;;;;;;19.27;49.57;98701.22;4487029;31;20080;-79
2022/09/03 01:14:54;;;;;;;6.82;2.50;;;;;;;19.30;49.47;98700.13;4502344;31;20738;-78
2022/09/03 01:17:50;;;;;;;8.60;2.60;;;;;;;19.05;49.84;98702.38;4500841;31;20100;-80
2022/09/03 01:20:44;;;;;;;7.80;2.60;;;;;;;19.16;49.67;98707.56;4485965;31;20091;-79
2022/09/03 01:23:22;;;;;;;9.10;2.80;;;;;;;18.92;50.13;98709.78;4487505;31;20417;-79
2022/09/03 01:26:06;;;;;;;7.80;2.80;;;;;;;19.02;49.91;98715.97;4487056;31;20591;-78
2022/09/03 01:29:02;;;;;;;10.30;2.83;;;;;;;19.11;49.73;98712.47;4485459;31;20160;-80
2022/09/03 01:31:43;;;;;;;7.68;2.80;;;;;;;19.15;49.77;98708.53;4486164;31;20192;-80
2022/09/03 01:34:12;;;;;;;7.75;2.53;;;;;;;19.15;49.92;98710.38;4486306;31;20140;-80
2022/09/03 01:36:51;;;;;;;9.20;2.65;;;;;;;19.15;50.04;98705.87;4501880;31;20188;-80
2022/09/03 01:39:33;;;;;;;8.02;2.53;;;;;;;19.07;50.06;98711.06;4500896;31;20114;-80
2022/09/03 01:42:16;;;;;;;7.43;2.58;;;;;;;19.05;50.10;98703.19;4501024;31;20092;-80
2022/09/03 01:45:08;;;;;;;8.38;2.78;;;;;;;19.10;49.70;98720.63;4500553;31;20072;-80
2022/09/03 01:47:36;;;;;;;9.43;2.50;;;;;;;19.09;49.91;98708.28;4486393;31;20112;-80
2022/09/03 01:50:12;;;;;;;6.80;2.60;;;;;;;19.10;49.99;98710.78;4499844;31;20083;-80
2022/09/03 01:52:50;;;;;;;7.05;2.30;;;;;;;19.09;50.13;98714.44;4486421;31;20467;-80
2022/09/03 01:55:46;;;;;;;7.90;2.40;;;;;;;19.13;50.16;98709.69;4492653;31;20103;-79
2022/09/03 01:58:19;;;;;;;8.45;2.55;;;;;;;19.12;50.27;98708.81;4499747;31;20172;-80
2022/09/03 02:00:49;;;;;;;8.80;2.53;;;;;;;19.09;50.47;98721.63;4484266;31;20096;-80
2022/09/03 02:03:15;;;;;;;8.75;2.62;;;;;;;19.04;50.54;98714.88;4487191;31;20150;-80
2022/09/03 02:05:42;;;;;;;6.85;2.42;;;;;;;19.04;50.52;98717.53;4501074;31;20150;-80
2022/09/03 02:08:09;;;;;;;8.95;2.65;;;;;;;19.08;50.54;98723.44;4500923;31;20123;-80
2022/09/03 02:10:42;;;;;;;6.87;2.45;;;;;;;19.05;50.66;98721.06;4500458;31;20481;-80
2022/09/03 02:13:15;;;;;;;9.30;2.50;;;;;;;19.03;50.63;98721.19;4487089;31;20490;-81
2022/09/03 02:15:44;;;;;;;7.40;2.65;;;;;;;19.01;50.54;98717.81;4486352;31;20096;-80
2022/09/03 02:18:16;;;;;;;7.62;2.47;;;;;;;18.99;50.72;98716.28;4473317;31;20134;-82
2022/09/03 02:20:42;;;;;;;9.77;2.83;;;;;;;18.91;50.74;98716.09;4500076;31;21557;-81
2022/09/03 02:23:08;;;;;;;8.13;2.72;;;;;;;18.92;50.75;98717.81;4487254;31;20116;-81
2022/09/03 02:25:38;;;;;;;7.70;2.58;;;;;;;18.89;50.76;98720.75;4500513;31;20372;-81
2022/09/03 02:28:05;;;;;;;8.27;2.58;;;;;;;18.89;50.76;98726.94;4486137;31;20100;-81
2022/09/03 02:30:31;;;;;;;9.70;2.97;;;;;;;18.91;50.72;98727.66;4483500;31;20130;-82
2022/09/03 02:32:58;;;;;;;9.25;2.60;;;;;;;18.86;50.75;98724.53;4498436;31;20513;-80
2022/09/03 02:35:23;;;;;;;7.73;2.40;;;;;;;18.83;50.83;98723.00;4487094;31;20096;-81
2022/09/03 02:37:49;;;;;;;9.27;2.55;;;;;;;18.86;50.96;98717.38;4500376;31;20176;-80
2022/09/03 02:40:16;;;;;;;7.62;2.65;;;;;;;18.86;51.02;98720.03;4499758;31;20108;-81
2022/09/03 02:42:41;;;;;;;8.15;2.70;;;;;;;18.89;51.12;98721.59;4486964;31;20088;-81
2022/09/03 02:45:27;;;;;;;8.57;2.47;;;;;;;18.71;51.44;98715.19;4500817;31;20382;-80
2022/09/03 02:47:58;;;;;;;8.32;2.72;;;;;;;18.73;51.38;98714.06;4499084;31;20130;-80
2022/09/03 02:50:24;;;;;;;10.35;2.75;;;;;;;18.74;51.31;98720.28;4501254;31;20120;-81
2022/09/03 02:52:50;;;;;;;8.68;3.00;;;;;;;18.74;51.36;98720.28;4500765;31;20356;-78
2022/09/03 02:55:16;;;;;;;10.77;3.35;;;;;;;18.72;51.66;98724.91;4486999;31;20204;-79
2022/09/03 02:57:41;;;;;;;8.52;2.97;;;;;;;18.69;52.10;98725.16;4485968;31;20128;-79
2022/09/03 03:00:07;;;;;;;8.20;3.15;;;;;;;18.71;52.24;98724.03;4500936;31;20470;-79
2022/09/03 03:02:33;;;;;;;9.27;3.17;;;;;;;18.73;52.35;98723.91;4500782;31;20412;-80
2022/09/03 03:04:59;;;;;;;8.50;2.70;;;;;;;18.69;52.36;98727.84;4471891;31;20104;-80
2022/09/03 03:07:25;;;;;;;10.45;3.08;;;;;;;18.69;52.30;98725.16;4485942;31;20100;-80
2022/09/03 03:09:51;;;;;;;12.68;2.70;;;;;;;18.47;52.88;98730.59;4485284;31;20242;-78
2022/09/03 03:12:16;;;;;;;9.23;2.92;;;;;;;18.35;53.02;98730.81;4486299;31;20127;-80
2022/09/03 03:14:42;;;;;;;9.88;3.20;;;;;;;18.52;52.63;98719.50;4498905;31;20337;-79
2022/09/03 03:17:08;;;;;;;9.35;2.83;;;;;;;18.59;52.55;98725.16;4486174;31;20116;-79
2022/09/03 03:19:33;;;;;;;8.38;2.83;;;;;;;18.57;52.50;98724.44;4486224;31;20130;-79
2022/09/03 03:21:59;;;;;;;8.13;2.87;;;;;;;18.66;52.33;98723.62;4500391;31;20087;-80
2022/09/03 03:24:24;;;;;;;7.65;2.70;;;;;;;18.66;52.32;98726.31;4501223;31;20120;-79
2022/09/03 03:26:49;;;;;;;8.95;3.10;;;;;;;18.62;52.44;98720.37;4501464;31;20108;-80
2022/09/03 03:29:16;;;;;;;9.75;2.83;;;;;;;18.63;52.44;98729.22;4499683;31;20095;-78
2022/09/03 03:31:42;;;;;;;10.57;3.37;;;;;;;18.62;52.59;98735.53;4484696;31;20104;-78
2022/09/03 03:34:08;;;;;;;7.35;2.78;;;;;;;18.59;52.59;98742.00;4484328;31;20542;-80
2022/09/03 03:36:34;;;;;;;10.45;3.25;;;;;;;18.63;52.60;98737.22;4486269;31;20159;-79
2022/09/03 03:39:00;;;;;;;11.93;3.35;;;;;;;18.58;52.76;98734.97;4500955;31;20454;-78
2022/09/03 03:41:31;;;;;;;9.52;3.03;;;;;;;18.59;52.76;98744.66;4499877;31;20588;-77
2022/09/03 03:43:59;;;;;;;9.40;3.00;;;;;;;18.57;52.82;98737.78;4499818;31;20130;-78
2022/09/03 03:46:24;;;;;;;;;;;;;;;18.55;52.85;98739.75;4485630;31;20104;-78
2022/09/03 03:48:50;;;;;;;9.77;2.72;;;;;;;18.61;52.75;98734.69;4486322;31;19983;-78
2022/09/03 03:51:17;;;;;;;10.65;2.85;;;;;;;18.54;52.87;98740.72;4473541;31;20112;-78
2022/09/03 03:53:42;;;;;;;8.30;3.33;;;;;;;18.52;52.98;98750.66;4483971;31;20406;-80
2022/09/03 03:56:11;;;;;;;8.88;3.22;;;;;;;18.51;53.02;98747.16;4500269;31;20092;-79
2022/09/03 03:58:37;;;;;;;9.32;3.00;;;;;;;18.49;53.14;98743.78;4485426;31;20104;-79
2022/09/03 04:01:17;;;;;;;8.30;3.23;;;;;;;18.47;53.19;98743.09;4486644;31;20067;-80
2022/09/03 04:03:43;;;;;;;9.88;3.17;;;;;;;18.49;53.19;98748.28;4486336;31;20526;-81
2022/09/03 04:06:11;;;;;;;9.00;3.20;;;;;;;18.49;53.20;98749.13;4484800;31;20148;-81
2022/09/03 04:08:38;;;;;;;10.32;3.37;;;;;;;18.45;53.34;98755.72;4486737;31;20130;-81
2022/09/03 04:11:06;;;;;;;8.55;2.70;;;;;;;18.36;53.53;98753.84;4471989;31;20080;-81
2022/09/03 04:13:32;;;;;;;;;;;;;;;18.39;53.45;98753.59;4472732;31;20136;-81
2022/09/03 04:16:03;;;;;;;8.35;2.72;;;;;;;18.50;53.29;98755.31;4485147;31;19987;-81
2022/09/03 04:18:29;;;;;;;9.95;3.10;;;;;;;18.37;53.58;98759.06;4500474;31;20104;-81
2022/09/03 04:21:06;;;;;;;9.98;2.95;;;;;;;18.45;53.56;98767.22;4473134;31;20121;-80
2022/09/03 04:23:40;;;;;;;10.30;3.42;;;;;;;18.47;53.61;98767.94;4485700;31;20114;-82
2022/09/03 04:26:07;;;;;;;7.93;2.95;;;;;;;18.47;53.79;98767.94;4485674;31;20104;-81
2022/09/03 04:28:32;;;;;;;11.03;3.70;;;;;;;18.51;53.78;98760.50;4470823;31;20437;-82
2022/09/03 04:31:06;;;;;;;9.40;3.33;;;;;;;18.53;53.78;98765.72;4498953;31;20100;-81
2022/09/03 04:33:32;;;;;;;8.10;3.40;;;;;;;18.62;53.57;98768.41;4499342;31;20087;-81
2022/09/03 04:36:07;;;;;;;9.77;3.10;;;;;;;18.70;53.34;98766.87;4483726;31;20226;-80
2022/09/03 04:38:34;;;;;;;9.00;2.70;;;;;;;18.80;53.36;98765.97;4485407;31;20119;-81
2022/09/03 04:40:59;;;;;;;8.43;3.05;;;;;;;18.85;53.39;98769.06;4499616;31;20087;-81
2022/09/03 04:43:26;;;;;;;9.73;2.80;;;;;;;18.93;53.28;98773.72;4498092;31;20106;-81
2022/09/03 04:45:55;;;;;;;8.55;2.90;;;;;;;19.01;53.26;98773.87;4502177;31;20108;-81
2022/09/03 04:48:20;;;;;;;8.77;2.83;;;;;;;19.10;53.21;98774.03;4486970;31;20091;-80
2022/09/03 04:50:46;;;;;;;8.85;2.65;;;;;;;19.20;53.25;98775.75;4486875;31;20239;-81
2022/09/03 04:53:11;;;;;;;9.93;2.95;;;;;;;19.34;52.72;98771.81;4480296;32;20225;-80
2022/09/03 04:55:37;;;;;;;8.43;3.10;;;;;;;19.41;52.57;98770.28;4487453;31;20449;-81
2022/09/03 04:58:03;;;;;;;11.55;3.28;;;;;;;19.57;51.81;98774.22;4488235;31;20084;-80
2022/09/03 05:00:29;;;;;;;9.45;3.45;;;;;;;19.62;51.50;98772.81;4488237;31;20088;-81
2022/09/03 05:02:55;;;;;;;11.48;4.28;;;;;;;19.53;51.72;98770.97;4488371;31;20818;-81
2022/09/03 05:05:20;;;;;;;10.85;4.05;;;;;;;19.54;51.19;98769.13;4486919;32;20113;-78
2022/09/03 05:07:45;;;;;;;11.40;4.10;;;;;;;19.42;51.59;98779.97;4484039;32;20093;-80
2022/09/03 05:10:19;;;;;;;10.70;4.15;;;;;;;19.57;51.40;98774.22;4484866;31;20468;-80
2022/09/03 05:12:45;;;;;;;11.88;3.95;;;;;;;19.69;51.04;98772.22;4485244;31;20099;-81
2022/09/03 05:15:11;;;;;;;11.12;3.62;;;;;;;19.71;50.66;98775.59;4486019;31;20119;-80
2022/09/03 05:17:37;;;;;;;9.18;3.75;;;;;;;20.01;49.92;98775.44;4498715;31;20429;-79
2022/09/03 05:20:03;;;;;;;12.43;4.78;;;;;;;20.13;49.30;98786.81;4493625;31;20088;-79
2022/09/03 05:22:29;;;;;;;11.85;5.00;;;;;;;20.17;49.06;98776.69;4498781;31;20096;-81
2022/09/03 05:24:55;;;;;;;11.32;3.87;;;;;;;20.16;49.17;98774.97;4500770;31;20380;-80
2022/09/03 05:27:20;;;;;;;10.98;4.40;;;;;;;20.13;49.48;98785.97;4496150;31;20147;-81
2022/09/03 05:29:46;;;;;;;10.95;4.03;;;;;;;20.28;49.05;98775.63;4471673;32;20118;-81
2022/09/03 05:32:12;;;;;;;10.35;4.10;;;;;;;20.20;49.17;98773.69;4486349;32;20088;-81
2022/09/03 05:34:38;;;;;;;11.43;4.30;;;;;;;20.14;49.46;98779.63;4474065;31;20632;-78
2022/09/03 05:37:04;;;;;;;13.02;4.50;;;;;;;20.19;49.62;98775.53;4488690;31;20205;-80
2022/09/03 05:39:29;;;;;;;11.55;4.37;;;;;;;20.21;49.51;98772.72;4472449;31;20092;-80
2022/09/03 05:41:54;;;;;;;12.43;4.65;;;;;;;19.90;50.73;98777.44;4502329;31;20120;-81
2022/09/03 05:44:23;;;;;;;12.30;5.32;;;;;;;20.10;50.02;98776.41;4489006;31;20432;-81
2022/09/03 05:46:49;;;;;;;11.38;5.12;;;;;;;19.89;50.97;98781.09;4489243;31;20083;-81
2022/09/03 05:49:15;;;;;;;13.90;6.03;;;;;;;20.05;51.15;98781.34;4487805;32;20087;-80
2022/09/03 05:51:41;;;;;;;13.60;5.97;;;;;;;20.18;50.71;98776.50;4489279;31;20420;-81
2022/09/03 05:54:07;;;;;;;16.30;7.68;;;;;;;20.50;50.12;98782.47;4486328;31;20132;-81
2022/09/03 05:56:34;;;;;;;14.57;6.40;;;;;;;20.45;49.98;98790.94;4472687;32;20565;-82
2022/09/03 05:59:03;;;;;;;11.10;4.40;;;;;;;20.40;50.49;98791.38;4487583;32;20110;-82
2022/09/03 06:01:30;;;;;;;11.02;4.00;;;;;;;20.86;49.57;98785.28;4473484;32;20437;-81
2022/09/03 06:03:58;;;;;;;11.43;3.90;;;;;;;21.10;49.05;98788.25;4473372;32;20131;-80
2022/09/03 06:06:27;;;;;;;;;;;;;;;21.40;48.32;98784.38;4488061;32;20172;-80
2022/09/03 06:08:57;;;;;;;13.80;4.20;;;;;;;21.70;47.46;98779.63;4473521;32;20319;-82
2022/09/03 06:11:28;;;;;;;9.73;3.85;;;;;;;21.49;47.89;98776.44;4471476;32;20100;-81
2022/09/03 06:13:59;;;;;;;11.12;3.90;;;;;;;21.39;48.00;98789.87;4485446;32;20085;-81
2022/09/03 06:16:24;;;;;;;9.60;4.03;;;;;;;21.82;46.92;98782.06;4473604;32;20089;-82
2022/09/03 06:18:50;;;;;;;10.25;4.22;;;;;;;21.91;46.89;98781.97;4473150;32;20088;-81
2022/09/03 06:21:15;;;;;;;12.55;4.43;;;;;;;22.10;46.50;98783.63;4487414;32;20116;-81
2022/09/03 06:23:41;;;;;;;10.13;3.80;;;;;;;22.25;45.75;98775.88;4487504;32;20088;-81
2022/09/03 06:26:13;;;;;;;10.98;4.30;;;;;;;22.47;45.04;98787.06;4487502;32;20152;-81
2022/09/03 06:28:42;;;;;;;11.80;4.10;;;;;;;22.29;45.36;98779.94;4460213;32;20664;-81
2022/09/03 06:31:10;;;;;;;10.40;3.95;;;;;;;22.38;45.26;98783.47;4487407;32;20084;-83
2022/09/03 06:33:36;;;;;;;11.80;4.35;;;;;;;22.61;44.89;98782.94;4473253;32;20112;-82
2022/09/03 06:36:04;;;;;;;12.90;4.40;;;;;;;22.70;44.97;98773.91;4487362;32;20114;-82
2022/09/03 06:38:31;;;;;;;12.90;4.45;;;;;;;22.67;44.62;98774.22;4473223;32;20143;-83
2022/09/03 06:41:03;;;;;;;12.95;4.10;;;;;;;22.68;44.44;98773.25;4487285;32;20182;-83
2022/09/03 06:43:30;;;;;;;10.90;4.72;;;;;;;22.83;44.19;98774.31;4473452;32;20383;-83
2022/09/03 06:45:57;;;;;;;13.05;4.55;;;;;;;22.95;43.52;98761.41;4473077;32;20164;-83
2022/09/03 06:48:23;;;;;;;11.40;3.58;;;;;;;22.83;43.50;98766.25;4487645;32;20155;-83
2022/09/03 06:51:00;;;;;;;10.32;4.28;;;;;;;22.93;43.86;98769.62;4487253;32;20143;-84
2022/09/03 06:53:28;;;;;;;11.68;4.45;;;;;;;23.03;43.65;98766.00;4487407;32;20101;-84
2022/09/03 06:55:54;;;;;;;;;;;;;;;23.00;43.55;98758.22;4487458;32;20451;-85
2022/09/03 06:58:20;;;;;;;9.80;4.10;;;;;;;23.09;43.27;98765.34;4473108;32;20288;-85
2022/09/03 07:00:46;;;;;;;11.50;4.87;;;;;;;23.20;43.34;98765.03;4487264;32;20147;-85
2022/09/03 07:03:11;;;;;;;13.20;4.40;;;;;;;23.31;42.89;98762.03;4487138;32;20081;-86
2022/09/03 07:05:37;;;;;;;12.82;4.40;;;;;;;23.36;42.69;98762.34;4487337;32;20110;-85
2022/09/03 07:08:02;;;;;;;10.48;4.20;;;;;;;22.67;43.73;98768.84;4487028;32;20153;-85
2022/09/03 07:10:28;;;;;;;10.80;4.15;;;;;;;22.85;43.38;98772.28;4487148;32;20084;-85
2022/09/03 07:12:54;;;;;;;11.85;4.37;;;;;;;23.20;43.09;98766.84;4487159;32;20134;-86
2022/09/03 07:15:20;;;;;;;11.57;4.33;;;;;;;23.32;42.61;98766.37;4487044;32;20084;-85
2022/09/03 07:17:46;;;;;;;13.35;5.10;;;;;;;23.27;42.84;98770.56;4472802;32;20132;-84
2022/09/03 07:20:11;;;;;;;10.93;4.15;;;;;;;23.28;43.12;98766.91;4472948;32;20477;-83
2022/09/03 07:22:36;;;;;;;10.10;3.90;;;;;;;22.81;43.44;98778.12;4487031;32;20092;-83
2022/09/03 07:25:02;;;;;;;11.80;4.32;;;;;;;23.10;43.10;98767.00;4487128;32;20444;-83
2022/09/03 07:27:27;;;;;;;11.00;3.85;;;;;;;22.87;43.17;98775.66;4486978;32;20084;-82
2022/09/03 07:29:53;;;;;;;12.77;4.32;;;;;;;22.90;43.42;98774.47;4487001;32;20134;-82
2022/09/03 07:32:18;;;;;;;12.05;4.18;;;;;;;22.98;42.93;98771.81;4487058;32;20476;-82
2022/09/03 07:34:44;;;;;;;10.52;3.90;;;;;;;23.21;42.84;98758.63;4486947;32;20085;-82
2022/09/03 07:37:10;;;;;;;10.40;3.47;;;;;;;23.00;44.38;98766.28;4486924;32;20088;-83
2022/09/03 07:39:35;;;;;;;8.63;3.35;;;;;;;23.38;42.37;98762.19;4486943;32;20381;-83
2022/09/03 07:42:01;;;;;;;13.40;3.60;;;;;;;23.25;41.74;98759.97;4472481;32;20112;-83
2022/09/03 07:44:27;;;;;;;9.65;3.53;;;;;;;23.33;42.03;98761.84;4486835;32;20107;-82
2022/09/03 07:46:52;;;;;;;9.40;3.17;;;;;;;23.24;41.73;98770.91;4486830;32;20233;-83
2022/09/03 07:49:19;;;;;;;8.57;2.97;;;;;;;23.50;41.28;98771.59;4486847;32;20080;-83
2022/09/03 07:51:49;;;;;;;6.40;2.62;;;;;;;23.21;41.46;98773.94;4486844;32;20111;-83
2022/09/03 07:54:14;;;;;;;12.43;3.12;;;;;;;23.42;40.01;98774.28;4486525;32;20197;-82
2022/09/03 07:56:40;;;;;;;9.98;3.03;;;;;;;23.12;40.33;98773.91;4486955;32;20375;-82
2022/09/03 07:59:06;;;;;;;10.02;2.70;;;;;;;22.12;43.11;98784.31;4486582;32;20076;-82
2022/09/03 08:01:33;;;;;;;8.85;3.10;;;;;;;22.33;42.10;98783.97;4472459;32;20104;-84
2022/09/03 08:04:00;;;;;;;8.65;2.70;;;;;;;22.90;41.30;98783.38;4472426;32;20470;-85
2022/09/03 08:06:26;;;;;;;8.57;2.87;;;;;;;23.05;41.66;98772.06;4486752;32;20916;-85
2022/09/03 08:08:59;;;;;;;8.20;2.95;;;;;;;23.38;41.19;98777.50;4486686;32;20106;-85
2022/09/03 08:11:26;;;;;;;10.60;3.12;;;;;;;23.53;40.69;98782.03;4486625;32;20073;-85
2022/09/03 08:14:00;;;;;;;12.55;3.05;;;;;;;23.16;41.37;98779.81;4486532;32;20139;-85
2022/09/03 08:16:26;;;;;;;8.98;2.70;;;;;;;22.74;41.55;98786.00;4486543;32;20122;-85
2022/09/03 08:18:52;;;;;;;10.43;2.92;;;;;;;22.84;41.63;98780.50;4485749;32;20072;-85
2022/09/03 08:21:20;;;;;;;11.23;2.97;;;;;;;22.74;41.82;98780.63;4486444;32;20144;-84
2022/09/03 08:23:50;;;;;;;10.30;3.00;;;;;;;22.94;41.27;98784.72;4472048;32;20101;-84
2022/09/03 08:26:16;;;;;;;9.00;2.70;;;;;;;23.21;40.35;98779.31;4486694;32;20080;-84
2022/09/03 08:28:42;;;;;;;8.77;3.10;;;;;;;22.78;40.86;98790.06;4486643;32;20182;-85
2022/09/03 08:31:10;;;;;;;8.63;2.78;;;;;;;22.74;41.59;98780.63;4486371;32;20089;-85
2022/09/03 08:33:41;;;;;;;9.30;2.83;;;;;;;23.08;40.25;98775.25;4486409;32;20495;-85
2022/09/03 08:36:12;;;;;;;8.52;2.65;;;;;;;22.95;41.12;98781.06;4486291;32;20088;-85
2022/09/03 08:38:42;;;;;;;10.75;2.62;;;;;;;22.69;41.05;98786.47;4486336;32;20076;-84
2022/09/03 08:41:15;;;;;;;8.93;2.62;;;;;;;23.01;40.88;98784.94;4472058;32;20192;-85
2022/09/03 08:44:04;;;;;;;7.82;2.83;;;;;;;22.87;40.99;98786.41;4472135;32;20122;-85
2022/09/03 08:46:52;;;;;;;;;;;;;;;23.13;40.37;98783.63;4486600;32;20106;-85
2022/09/03 08:49:32;;;;;;;8.65;2.85;;;;;;;23.58;39.39;98778.84;4406473;32;20015;-84
2022/09/03 08:52:01;;;;;;;8.05;2.70;;;;;;;23.59;39.28;98783.22;4406539;32;20152;-83
2022/09/03 08:54:29;;;;;;;9.27;3.05;;;;;;;23.17;40.43;98784.16;4406171;32;20549;-85
2022/09/03 08:56:59;;;;;;;9.65;2.92;;;;;;;23.50;40.79;98779.66;4406387;32;20112;-85
2022/09/03 08:59:24;;;;;;;9.52;3.00;;;;;;;23.92;40.39;98778.69;4393647;32;20426;-83
2022/09/03 09:02:16;;;;;;;8.68;2.90;;;;;;;23.73;40.49;98777.16;4393711;32;20192;-84
2022/09/03 09:05:00;;;;;;;10.10;3.08;;;;;;;24.00;39.74;98779.72;4406436;32;20114;-84
2022/09/03 09:08:01;;;;;;;8.02;2.90;;;;;;;24.03;39.21;98773.97;4406240;32;20204;-84
2022/09/03 09:10:52;;;;;;;8.48;2.83;;;;;;;23.91;38.59;98777.03;4383602;32;20090;-84
2022/09/03 09:13:33;;;;;;;8.02;2.53;;;;;;;23.46;40.34;98767.56;4393537;32;20267;-84
2022/09/03 09:16:01;;;;;;;8.85;3.03;;;;;;;23.53;40.45;98767.75;4393573;32;20536;-84
2022/09/03 09:18:45;;;;;;;11.65;2.90;;;;;;;23.70;39.79;98766.75;4393354;32;20110;-84
2022/09/03 09:21:13;;;;;;;9.23;2.90;;;;;;;23.66;40.02;98760.03;4393377;32;20093;-85
2022/09/03 09:23:49;;;;;;;8.68;2.87;;;;;;;23.86;40.15;98757.84;4406087;32;20391;-84
2022/09/03 09:26:20;;;;;;;9.82;3.08;;;;;;;23.42;41.13;98760.00;4442962;32;20118;-84
2022/09/03 09:28:51;;;;;;;8.52;2.83;;;;;;;23.47;40.39;98766.56;4485781;32;20506;-83
2022/09/03 09:31:17;;;;;;;7.57;2.80;;;;;;;23.47;40.88;98757.66;4472452;32;20193;-84
2022/09/03 09:33:44;;;;;;;10.80;3.27;;;;;;;23.89;39.57;98762.91;4487734;32;20100;-83
2022/09/03 09:36:14;;;;;;;7.97;2.70;;;;;;;23.36;40.38;98761.53;4473592;32;20097;-83
2022/09/03 09:38:40;;;;;;;10.32;2.80;;;;;;;24.04;39.21;98765.72;4487813;32;20476;-85
2022/09/03 09:41:18;;;;;;;9.20;3.05;;;;;;;23.55;39.36;98763.06;4490832;31;20557;-81
2022/09/03 09:43:46;;;;;;;7.12;2.55;;;;;;;23.55;39.30;98760.38;4492447;31;20112;-81
2022/09/03 09:46:13;;;;;;;8.73;2.80;;;;;;;23.79;39.04;98756.84;4481662;31;20111;-80
2022/09/03 09:48:53;;;;;;;8.43;2.55;;;;;;;23.97;38.66;98763.91;4481534;31;20096;-81
2022/09/03 09:51:29;;;;;;;7.05;2.20;;;;;;;23.93;38.07;98761.56;4480039;31;20492;-81
2022/09/03 09:54:18;;;;;;;6.78;2.03;;;;;;;24.16;37.08;98762.69;4479847;31;20096;-80
2022/09/03 09:56:43;;;;;;;9.38;2.10;;;;;;;24.06;35.17;98768.25;4486249;31;20091;-84
2022/09/03 09:59:10;;;;;;;7.78;1.65;;;;;;;24.26;31.72;98764.19;4493295;31;20160;-86
2022/09/03 10:01:40;;;;;;;6.80;2.45;;;;;;;23.70;34.33;98758.69;4481156;31;20096;-83
2022/09/03 10:04:11;;;;;;;6.22;2.10;;;;;;;24.10;35.32;98756.97;4485046;31;20116;-83
2022/09/03 10:06:52;;;;;;;6.80;2.15;;;;;;;23.93;36.55;98760.69;4477108;32;20100;-83
2022/09/03 10:09:20;;;;;;;8.20;3.05;;;;;;;24.23;35.78;98761.00;4461544;32;20108;-84
2022/09/03 10:12:13;;;;;;;9.02;3.30;;;;;;;23.71;39.40;98760.34;4487289;32;20453;-83
2022/09/03 10:14:52;;;;;;;8.43;2.95;;;;;;;24.20;38.55;98758.63;4495711;31;20131;-83
2022/09/03 10:17:31;;;;;;;9.70;2.80;;;;;;;24.38;38.89;98755.72;4480886;31;20138;-83
2022/09/03 10:22:56;;;;;;;6.62;2.20;;;;;;;24.65;38.07;98762.59;4493242;31;20167;-83
2022/09/03 10:25:25;;;;;;;8.88;2.17;;;;;;;24.82;37.70;98760.63;4488237;31;20160;-83
2022/09/03 10:27:53;;;;;;;7.22;2.30;;;;;;;24.72;36.86;98764.41;4476528;31;20112;-82
2022/09/03 10:30:19;;;;;;;9.88;2.22;;;;;;;25.16;35.91;98754.91;4486027;32;20093;-84
2022/09/03 10:33:03;;;;;;;6.93;2.20;;;;;;;25.35;34.36;98752.78;4485994;32;20164;-83
2022/09/03 10:35:32;;;;;;;6.65;2.30;;;;;;;25.44;34.27;98757.94;4488403;31;20478;-84
2022/09/03 10:38:10;;;;;;;7.75;2.20;;;;;;;25.37;34.69;98754.28;4473046;32;20105;-84
2022/09/03 10:40:56;;;;;;;9.07;2.40;;;;;;;25.55;34.22;98756.66;4485944;32;20104;-86
2022/09/03 10:43:36;;;;;;;7.35;2.30;;;;;;;25.59;33.63;98754.44;4487195;31;20105;-85
2022/09/03 10:46:06;;;;;;;8.57;2.37;;;;;;;25.70;33.90;98749.47;4485872;32;20108;-85
2022/09/03 10:49:01;;;;;;;7.93;2.62;;;;;;;24.98;35.59;98743.56;4495107;31;20110;-85
2022/09/03 10:51:33;;;;;;;6.78;2.30;;;;;;;25.48;35.73;98731.47;4485630;31;20096;-84
2022/09/03 10:54:21;;;;;;;6.28;2.00;;;;;;;24.79;37.08;98748.38;4485887;31;20089;-84
2022/09/03 10:57:19;;;;;;;6.12;1.80;;;;;;;25.33;35.10;98742.19;4483954;31;20108;-83
2022/09/03 11:00:03;;;;;;;6.78;2.20;;;;;;;24.99;34.32;98735.28;4486426;31;20509;-84
2022/09/03 11:03:03;;;;;;;7.55;2.20;;;;;;;25.27;34.53;98738.34;4494691;31;20500;-84
2022/09/03 11:05:41;;;;;;;9.02;2.28;;;;;;;25.74;33.16;98731.06;4489505;31;20101;-85
2022/09/03 11:08:58;;;;;;;7.62;2.45;;;;;;;25.95;33.15;98735.78;4483687;32;20135;-84
2022/09/03 11:11:36;;;;;;;7.72;2.42;;;;;;;26.09;34.07;98732.25;4420141;32;20468;-84
2022/09/03 11:14:11;;;;;;;9.75;2.50;;;;;;;25.59;35.40;98728.31;4435090;32;20093;-83
2022/09/03 11:16:47;;;;;;;7.70;2.35;;;;;;;26.00;34.45;98725.28;4423423;32;20097;-85
2022/09/03 11:19:16;;;;;;;7.20;1.90;;;;;;;25.87;34.31;98725.88;4420990;32;20159;-85
2022/09/03 11:21:42;;;;;;;8.50;1.98;;;;;;;26.18;33.95;98735.72;4436180;32;20131;-85
2022/09/03 11:24:21;;;;;;;6.03;2.15;;;;;;;26.03;32.51;98737.56;4421415;32;20619;-85
2022/09/03 11:26:55;;;;;;;7.60;2.35;;;;;;;25.88;32.98;98737.50;4435953;32;20175;-85
2022/09/03 11:29:35;;;;;;;7.12;2.40;;;;;;;25.93;33.05;98727.03;4422595;32;20100;-82
2022/09/03 11:32:23;;;;;;;9.10;2.40;;;;;;;25.79;34.07;98728.66;4435770;32;20139;-83
2022/09/03 11:34:50;;;;;;;8.23;2.70;;;;;;;26.13;33.71;98726.50;4434612;32;20174;-82
2022/09/03 11:37:22;;;;;;;9.35;2.37;;;;;;;26.13;33.74;98742.69;4423347;32;20085;-82
2022/09/03 11:39:55;;;;;;;6.53;2.35;;;;;;;26.16;32.72;98735.06;4433977;32;20182;-82
2022/09/03 11:42:46;;;;;;;9.02;2.17;;;;;;;26.15;33.22;98741.47;4465547;31;20152;-85
2022/09/03 11:45:34;;;;;;;6.05;2.25;;;;;;;25.99;33.56;98738.97;4471110;32;20130;-82
2022/09/03 11:48:00;;;;;;;7.35;2.17;;;;;;;25.93;33.48;98735.13;4492691;31;20088;-82
2022/09/03 11:50:27;;;;;;;8.70;2.53;;;;;;;26.15;32.83;98729.84;4486495;31;20147;-82
2022/09/03 11:53:13;;;;;;;;;;;;;;;26.62;32.35;98728.66;4481822;31;20455;-82